sensor_id;sensor_type;location;lat;lon;timestamp;pressure;altitude;pressure_sealevel;temperature;humidity
66668;BME280;57205;51.438;-2.006;2023-05-21T00:00:41;101619.91;;;11.39;100.00
66668;BME280;57205;51.438;-2.006;2023-05-21T00:03:06;101616.25;;;11.28;100.00
66668;BME280;57205;51.438;-2.006;2023-05-21T00:05:40;101635.16;;;11.22;100.00
66668;BME280;57205;51.438;-2.006;2023-05-21T00:08:06;101633.13;;;11.12;100.00
66668;BME280;57205;51.438;-2.006;2023-05-21T00:10:31;101636.53;;;11.08;100.00
66668;BME280;57205;51.438;-2.006;2023-05-21T00:12:57;101635.88;;;11.01;100.00
66668;BME280;57205;51.438;-2.006;2023-05-21T00:15:22;101634.28;;;11.00;100.00
66668;BME280;57205;51.438;-2.006;2023-05-21T00:17:48;101633.13;;;10.96;100.00
66668;BME280;57205;51.438;-2.006;2023-05-21T00:20:13;101635.16;;;10.89;100.00
66668;BME280;57205;51.438;-2.006;2023-05-21T00:22:39;101637.97;;;10.82;100.00
66668;BME280;57205;51.438;-2.006;2023-05-21T00:25:07;101633.72;;;10.69;100.00
66668;BME280;57205;51.438;-2.006;2023-05-21T00:27:32;101639.94;;;10.58;100.00
66668;BME280;57205;51.438;-2.006;2023-05-21T00:29:57;101634.72;;;10.52;100.00
66668;BME280;57205;51.438;-2.006;2023-05-21T00:32:23;101633.47;;;10.43;100.00
66668;BME280;57205;51.438;-2.006;2023-05-21T00:34:48;101639.44;;;10.33;100.00
66668;BME280;57205;51.438;-2.006;2023-05-21T00:37:14;101643.53;;;10.24;100.00
66668;BME280;57205;51.438;-2.006;2023-05-21T00:39:40;101629.16;;;10.14;100.00
66668;BME280;57205;51.438;-2.006;2023-05-21T00:42:06;101638.31;;;10.06;100.00
66668;BME280;57205;51.438;-2.006;2023-05-21T00:44:31;101635.63;;;10.06;100.00
66668;BME280;57205;51.438;-2.006;2023-05-21T00:47:03;101632.88;;;10.01;100.00
66668;BME280;57205;51.438;-2.006;2023-05-21T00:49:29;101641.91;;;10.00;100.00
66668;BME280;57205;51.438;-2.006;2023-05-21T00:51:55;101637.63;;;9.99;100.00
66668;BME280;57205;51.438;-2.006;2023-05-21T00:54:22;101636.81;;;9.99;100.00
66668;BME280;57205;51.438;-2.006;2023-05-21T00:56:48;101641.25;;;9.93;100.00
66668;BME280;57205;51.438;-2.006;2023-05-21T00:59:15;101647.28;;;9.88;100.00
66668;BME280;57205;51.438;-2.006;2023-05-21T01:01:42;101645.78;;;9.81;100.00
66668;BME280;57205;51.438;-2.006;2023-05-21T01:04:10;101649.41;;;9.75;100.00
66668;BME280;57205;51.438;-2.006;2023-05-21T01:06:35;101645.31;;;9.72;100.00
66668;BME280;57205;51.438;-2.006;2023-05-21T01:09:02;101645.22;;;9.67;100.00
66668;BME280;57205;51.438;-2.006;2023-05-21T01:11:47;101642.66;;;9.61;100.00
66668;BME280;57205;51.438;-2.006;2023-05-21T01:14:15;101641.38;;;9.52;100.00
66668;BME280;57205;51.438;-2.006;2023-05-21T01:16:43;101642.28;;;9.46;100.00
66668;BME280;57205;51.438;-2.006;2023-05-21T01:19:17;101645.44;;;9.43;100.00
66668;BME280;57205;51.438;-2.006;2023-05-21T01:21:56;101652.03;;;9.40;100.00
66668;BME280;57205;51.438;-2.006;2023-05-21T01:24:24;101644.97;;;9.34;100.00
66668;BME280;57205;51.438;-2.006;2023-05-21T01:26:49;101652.50;;;9.26;100.00
66668;BME280;57205;51.438;-2.006;2023-05-21T01:29:15;101646.69;;;9.17;100.00
66668;BME280;57205;51.438;-2.006;2023-05-21T01:34:49;101652.53;;;8.96;100.00
66668;BME280;57205;51.438;-2.006;2023-05-21T01:37:30;101652.19;;;8.93;100.00
66668;BME280;57205;51.438;-2.006;2023-05-21T01:40:02;101652.31;;;8.86;100.00
66668;BME280;57205;51.438;-2.006;2023-05-21T01:42:30;101640.81;;;8.85;100.00
66668;BME280;57205;51.438;-2.006;2023-05-21T01:45:00;101639.97;;;8.85;100.00
66668;BME280;57205;51.438;-2.006;2023-05-21T01:47:30;101639.84;;;8.80;100.00
66668;BME280;57205;51.438;-2.006;2023-05-21T01:49:58;101633.69;;;8.79;100.00
66668;BME280;57205;51.438;-2.006;2023-05-21T01:52:23;101636.84;;;8.76;100.00
66668;BME280;57205;51.438;-2.006;2023-05-21T01:54:48;101627.34;;;8.80;100.00
66668;BME280;57205;51.438;-2.006;2023-05-21T01:57:16;101627.47;;;8.85;100.00
66668;BME280;57205;51.438;-2.006;2023-05-21T01:59:42;101622.13;;;8.85;100.00
66668;BME280;57205;51.438;-2.006;2023-05-21T02:02:08;101633.75;;;8.91;100.00
66668;BME280;57205;51.438;-2.006;2023-05-21T02:04:34;101631.66;;;8.93;100.00
66668;BME280;57205;51.438;-2.006;2023-05-21T02:07:00;101629.34;;;8.97;100.00
66668;BME280;57205;51.438;-2.006;2023-05-21T02:09:25;101627.03;;;9.00;100.00
66668;BME280;57205;51.438;-2.006;2023-05-21T02:11:50;101623.66;;;8.93;100.00
66668;BME280;57205;51.438;-2.006;2023-05-21T02:14:16;101628.38;;;8.79;100.00
66668;BME280;57205;51.438;-2.006;2023-05-21T02:16:41;101630.97;;;8.68;100.00
66668;BME280;57205;51.438;-2.006;2023-05-21T02:19:06;101630.50;;;8.59;100.00
66668;BME280;57205;51.438;-2.006;2023-05-21T02:21:34;101639.84;;;8.50;100.00
66668;BME280;57205;51.438;-2.006;2023-05-21T02:24:00;101640.53;;;8.46;100.00
66668;BME280;57205;51.438;-2.006;2023-05-21T02:26:25;101650.69;;;8.37;100.00
66668;BME280;57205;51.438;-2.006;2023-05-21T02:28:52;101641.97;;;8.30;100.00
66668;BME280;57205;51.438;-2.006;2023-05-21T02:31:18;101639.13;;;8.25;100.00
66668;BME280;57205;51.438;-2.006;2023-05-21T02:33:43;101634.00;;;8.24;100.00
66668;BME280;57205;51.438;-2.006;2023-05-21T02:36:08;101636.91;;;8.22;100.00
66668;BME280;57205;51.438;-2.006;2023-05-21T02:38:40;101632.91;;;8.13;100.00
66668;BME280;57205;51.438;-2.006;2023-05-21T02:41:12;101635.28;;;8.03;100.00
66668;BME280;57205;51.438;-2.006;2023-05-21T02:43:38;101641.47;;;7.97;100.00
66668;BME280;57205;51.438;-2.006;2023-05-21T02:46:05;101633.81;;;7.89;100.00
66668;BME280;57205;51.438;-2.006;2023-05-21T02:48:30;101633.44;;;7.85;100.00
66668;BME280;57205;51.438;-2.006;2023-05-21T02:50:56;101635.50;;;7.83;100.00
66668;BME280;57205;51.438;-2.006;2023-05-21T02:53:21;101630.59;;;7.80;100.00
66668;BME280;57205;51.438;-2.006;2023-05-21T02:55:46;101640.88;;;7.77;100.00
66668;BME280;57205;51.438;-2.006;2023-05-21T02:58:12;101642.34;;;7.73;100.00
66668;BME280;57205;51.438;-2.006;2023-05-21T03:00:39;101642.66;;;7.65;100.00
66668;BME280;57205;51.438;-2.006;2023-05-21T03:03:04;101637.59;;;7.57;100.00
66668;BME280;57205;51.438;-2.006;2023-05-21T03:05:30;101639.06;;;7.53;100.00
66668;BME280;57205;51.438;-2.006;2023-05-21T03:07:55;101643.78;;;7.51;100.00
66668;BME280;57205;51.438;-2.006;2023-05-21T03:10:21;101639.50;;;7.50;100.00
66668;BME280;57205;51.438;-2.006;2023-05-21T03:12:46;101645.28;;;7.47;100.00
66668;BME280;57205;51.438;-2.006;2023-05-21T03:15:11;101641.81;;;7.46;100.00
66668;BME280;57205;51.438;-2.006;2023-05-21T03:17:40;101633.81;;;7.46;100.00
66668;BME280;57205;51.438;-2.006;2023-05-21T03:20:08;101634.63;;;7.47;100.00
66668;BME280;57205;51.438;-2.006;2023-05-21T03:22:41;101638.91;;;7.48;100.00
66668;BME280;57205;51.438;-2.006;2023-05-21T03:25:06;101638.47;;;7.51;100.00
66668;BME280;57205;51.438;-2.006;2023-05-21T03:27:32;101637.22;;;7.53;100.00
66668;BME280;57205;51.438;-2.006;2023-05-21T03:29:57;101641.91;;;7.58;100.00
66668;BME280;57205;51.438;-2.006;2023-05-21T03:32:23;101634.94;;;7.57;100.00
66668;BME280;57205;51.438;-2.006;2023-05-21T03:34:48;101635.97;;;7.56;100.00
66668;BME280;57205;51.438;-2.006;2023-05-21T03:37:14;101636.63;;;7.51;100.00
66668;BME280;57205;51.438;-2.006;2023-05-21T03:39:39;101632.78;;;7.47;100.00
66668;BME280;57205;51.438;-2.006;2023-05-21T03:42:04;101635.00;;;7.50;100.00
66668;BME280;57205;51.438;-2.006;2023-05-21T03:44:30;101636.84;;;7.50;100.00
66668;BME280;57205;51.438;-2.006;2023-05-21T03:46:57;101632.53;;;7.49;100.00
66668;BME280;57205;51.438;-2.006;2023-05-21T03:49:24;101626.44;;;7.48;100.00
66668;BME280;57205;51.438;-2.006;2023-05-21T03:51:49;101624.00;;;7.47;100.00
66668;BME280;57205;51.438;-2.006;2023-05-21T03:54:15;101615.41;;;7.45;100.00
66668;BME280;57205;51.438;-2.006;2023-05-21T03:56:40;101615.81;;;7.42;100.00
66668;BME280;57205;51.438;-2.006;2023-05-21T03:59:05;101617.50;;;7.36;100.00
66668;BME280;57205;51.438;-2.006;2023-05-21T04:01:31;101621.25;;;7.29;100.00
66668;BME280;57205;51.438;-2.006;2023-05-21T04:03:57;101621.25;;;7.29;100.00
66668;BME280;57205;51.438;-2.006;2023-05-21T04:06:22;101614.72;;;7.25;100.00
66668;BME280;57205;51.438;-2.006;2023-05-21T04:08:48;101625.59;;;7.23;100.00
66668;BME280;57205;51.438;-2.006;2023-05-21T04:11:14;101623.16;;;7.22;100.00
66668;BME280;57205;51.438;-2.006;2023-05-21T04:13:39;101626.06;;;7.20;100.00
66668;BME280;57205;51.438;-2.006;2023-05-21T04:16:05;101617.91;;;7.15;100.00
66668;BME280;57205;51.438;-2.006;2023-05-21T04:18:33;101610.78;;;7.09;100.00
66668;BME280;57205;51.438;-2.006;2023-05-21T04:20:58;101609.81;;;7.04;100.00
66668;BME280;57205;51.438;-2.006;2023-05-21T04:23:24;101618.81;;;7.03;100.00
66668;BME280;57205;51.438;-2.006;2023-05-21T04:25:50;101610.41;;;7.06;100.00
66668;BME280;57205;51.438;-2.006;2023-05-21T04:28:15;101609.59;;;7.05;100.00
66668;BME280;57205;51.438;-2.006;2023-05-21T04:30:45;101602.66;;;7.04;100.00
66668;BME280;57205;51.438;-2.006;2023-05-21T04:33:10;101607.16;;;7.04;100.00
66668;BME280;57205;51.438;-2.006;2023-05-21T04:35:36;101613.66;;;7.08;100.00
66668;BME280;57205;51.438;-2.006;2023-05-21T04:38:01;101607.91;;;7.11;100.00
66668;BME280;57205;51.438;-2.006;2023-05-21T04:40:29;101615.44;;;7.14;100.00
66668;BME280;57205;51.438;-2.006;2023-05-21T04:42:55;101611.91;;;7.20;100.00
66668;BME280;57205;51.438;-2.006;2023-05-21T04:45:20;101624.16;;;7.27;100.00
66668;BME280;57205;51.438;-2.006;2023-05-21T04:47:48;101609.75;;;7.35;100.00
66668;BME280;57205;51.438;-2.006;2023-05-21T04:50:14;101614.81;;;7.43;100.00
66668;BME280;57205;51.438;-2.006;2023-05-21T04:52:39;101604.44;;;7.53;100.00
66668;BME280;57205;51.438;-2.006;2023-05-21T04:55:06;101615.56;;;7.68;100.00
66668;BME280;57205;51.438;-2.006;2023-05-21T04:57:32;101613.44;;;7.76;100.00
66668;BME280;57205;51.438;-2.006;2023-05-21T04:59:57;101611.88;;;7.87;100.00
66668;BME280;57205;51.438;-2.006;2023-05-21T05:02:22;101602.56;;;7.96;100.00
66668;BME280;57205;51.438;-2.006;2023-05-21T05:04:48;101599.97;;;8.08;100.00
66668;BME280;57205;51.438;-2.006;2023-05-21T05:07:13;101607.72;;;8.09;100.00
66668;BME280;57205;51.438;-2.006;2023-05-21T05:09:39;101611.25;;;8.21;100.00
66668;BME280;57205;51.438;-2.006;2023-05-21T05:12:05;101618.56;;;8.62;100.00
66668;BME280;57205;51.438;-2.006;2023-05-21T05:14:30;101607.94;;;9.38;100.00
66668;BME280;57205;51.438;-2.006;2023-05-21T05:16:56;101607.16;;;10.12;100.00
66668;BME280;57205;51.438;-2.006;2023-05-21T05:19:25;101603.66;;;10.79;100.00
66668;BME280;57205;51.438;-2.006;2023-05-21T05:21:50;101600.16;;;10.95;100.00
66668;BME280;57205;51.438;-2.006;2023-05-21T05:24:16;101590.75;;;10.93;100.00
66668;BME280;57205;51.438;-2.006;2023-05-21T05:26:41;101594.88;;;10.83;100.00
66668;BME280;57205;51.438;-2.006;2023-05-21T05:29:06;101595.00;;;11.05;100.00
66668;BME280;57205;51.438;-2.006;2023-05-21T05:31:32;101588.78;;;11.54;100.00
66668;BME280;57205;51.438;-2.006;2023-05-21T05:33:57;101586.66;;;12.16;100.00
66668;BME280;57205;51.438;-2.006;2023-05-21T05:36:23;101589.19;;;12.76;99.27
66668;BME280;57205;51.438;-2.006;2023-05-21T05:38:48;101584.19;;;13.58;94.22
66668;BME280;57205;51.438;-2.006;2023-05-21T05:41:13;101583.25;;;14.56;87.62
66668;BME280;57205;51.438;-2.006;2023-05-21T05:43:39;101584.09;;;15.42;79.64
66668;BME280;57205;51.438;-2.006;2023-05-21T05:46:04;101583.56;;;16.19;72.88
66668;BME280;57205;51.438;-2.006;2023-05-21T05:48:29;101583.63;;;16.63;67.59
66668;BME280;57205;51.438;-2.006;2023-05-21T05:50:55;101583.06;;;17.33;64.35
66668;BME280;57205;51.438;-2.006;2023-05-21T05:53:21;101581.56;;;17.45;62.23
66668;BME280;57205;51.438;-2.006;2023-05-21T05:55:46;101575.25;;;18.02;60.60
66668;BME280;57205;51.438;-2.006;2023-05-21T05:58:12;101583.91;;;18.65;57.08
66668;BME280;57205;51.438;-2.006;2023-05-21T06:00:37;101580.50;;;19.24;54.65
66668;BME280;57205;51.438;-2.006;2023-05-21T06:03:03;101580.34;;;19.34;52.40
66668;BME280;57205;51.438;-2.006;2023-05-21T06:05:29;101586.28;;;19.36;51.46
66668;BME280;57205;51.438;-2.006;2023-05-21T06:07:54;101591.66;;;19.68;50.76
66668;BME280;57205;51.438;-2.006;2023-05-21T06:10:19;101580.78;;;19.82;50.35
66668;BME280;57205;51.438;-2.006;2023-05-21T06:12:45;101587.09;;;20.31;48.07
66668;BME280;57205;51.438;-2.006;2023-05-21T06:15:10;101584.94;;;20.56;48.29
66668;BME280;57205;51.438;-2.006;2023-05-21T06:17:36;101586.94;;;20.64;47.03
66668;BME280;57205;51.438;-2.006;2023-05-21T06:20:01;101583.13;;;21.09;46.18
66668;BME280;57205;51.438;-2.006;2023-05-21T06:22:28;101585.59;;;21.19;43.98
66668;BME280;57205;51.438;-2.006;2023-05-21T06:24:53;101587.19;;;21.51;43.66
66668;BME280;57205;51.438;-2.006;2023-05-21T06:27:18;101602.16;;;21.62;43.40
66668;BME280;57205;51.438;-2.006;2023-05-21T06:29:44;101585.16;;;21.87;42.80
66668;BME280;57205;51.438;-2.006;2023-05-21T06:32:09;101592.56;;;22.03;42.57
66668;BME280;57205;51.438;-2.006;2023-05-21T06:34:35;101589.63;;;21.91;41.69
66668;BME280;57205;51.438;-2.006;2023-05-21T06:37:00;101587.78;;;22.09;41.05
66668;BME280;57205;51.438;-2.006;2023-05-21T06:39:25;101583.06;;;21.92;41.35
66668;BME280;57205;51.438;-2.006;2023-05-21T06:41:51;101583.16;;;22.44;40.04
66668;BME280;57205;51.438;-2.006;2023-05-21T06:44:17;101578.13;;;22.11;40.42
66668;BME280;57205;51.438;-2.006;2023-05-21T06:46:42;101583.88;;;21.93;41.15
66668;BME280;57205;51.438;-2.006;2023-05-21T06:49:09;101592.44;;;22.25;40.60
66668;BME280;57205;51.438;-2.006;2023-05-21T06:51:35;101597.22;;;22.11;40.31
66668;BME280;57205;51.438;-2.006;2023-05-21T06:54:01;101581.94;;;21.93;40.52
66668;BME280;57205;51.438;-2.006;2023-05-21T06:56:27;101588.31;;;21.80;40.82
66668;BME280;57205;51.438;-2.006;2023-05-21T06:58:52;101585.91;;;21.48;41.29
66668;BME280;57205;51.438;-2.006;2023-05-21T07:01:18;101585.59;;;21.19;42.24
66668;BME280;57205;51.438;-2.006;2023-05-21T07:03:44;101590.31;;;21.05;42.80
66668;BME280;57205;51.438;-2.006;2023-05-21T07:06:09;101588.28;;;20.97;43.72
66668;BME280;57205;51.438;-2.006;2023-05-21T07:08:35;101589.31;;;21.01;43.70
66668;BME280;57205;51.438;-2.006;2023-05-21T07:11:00;101592.25;;;20.91;43.89
66668;BME280;57205;51.438;-2.006;2023-05-21T07:13:25;101595.94;;;20.51;44.07
66668;BME280;57205;51.438;-2.006;2023-05-21T07:15:51;101581.16;;;20.29;45.36
66668;BME280;57205;51.438;-2.006;2023-05-21T07:18:17;101581.16;;;20.65;45.00
66668;BME280;57205;51.438;-2.006;2023-05-21T07:20:42;101578.47;;;20.65;44.83
66668;BME280;57205;51.438;-2.006;2023-05-21T07:23:08;101580.38;;;20.65;45.02
66668;BME280;57205;51.438;-2.006;2023-05-21T07:25:33;101577.97;;;20.85;44.92
66668;BME280;57205;51.438;-2.006;2023-05-21T07:27:59;101580.88;;;20.89;44.48
66668;BME280;57205;51.438;-2.006;2023-05-21T07:30:25;101575.00;;;20.73;45.33
66668;BME280;57205;51.438;-2.006;2023-05-21T07:32:50;101572.28;;;20.73;45.35
66668;BME280;57205;51.438;-2.006;2023-05-21T07:35:15;101587.75;;;20.64;45.49
66668;BME280;57205;51.438;-2.006;2023-05-21T07:37:41;101587.66;;;20.78;45.63
66668;BME280;57205;51.438;-2.006;2023-05-21T07:40:06;101584.94;;;20.56;45.93
66668;BME280;57205;51.438;-2.006;2023-05-21T07:42:32;101579.13;;;20.71;45.73
66668;BME280;57205;51.438;-2.006;2023-05-21T07:44:58;101573.19;;;20.69;46.32
66668;BME280;57205;51.438;-2.006;2023-05-21T07:47:23;101583.78;;;20.92;45.14
66668;BME280;57205;51.438;-2.006;2023-05-21T07:49:48;101593.88;;;21.14;44.90
66668;BME280;57205;51.438;-2.006;2023-05-21T07:52:14;101587.63;;;20.91;45.52
66668;BME280;57205;51.438;-2.006;2023-05-21T07:54:39;101586.75;;;20.60;45.73
66668;BME280;57205;51.438;-2.006;2023-05-21T07:57:05;101586.06;;;20.55;46.17
66668;BME280;57205;51.438;-2.006;2023-05-21T07:59:30;101587.47;;;20.52;46.38
66668;BME280;57205;51.438;-2.006;2023-05-21T08:01:55;101585.78;;;20.42;46.27
66668;BME280;57205;51.438;-2.006;2023-05-21T08:04:21;101596.50;;;20.83;45.73
66668;BME280;57205;51.438;-2.006;2023-05-21T08:06:46;101581.75;;;21.20;44.99
66668;BME280;57205;51.438;-2.006;2023-05-21T08:09:12;101579.50;;;21.22;45.17
66668;BME280;57205;51.438;-2.006;2023-05-21T08:11:38;101577.50;;;21.67;44.51
66668;BME280;57205;51.438;-2.006;2023-05-21T08:14:03;101572.72;;;22.28;42.54
66668;BME280;57205;51.438;-2.006;2023-05-21T08:16:29;101568.41;;;22.36;41.99
66668;BME280;57205;51.438;-2.006;2023-05-21T08:18:54;101566.31;;;22.50;42.17
66668;BME280;57205;51.438;-2.006;2023-05-21T08:21:20;101566.13;;;22.12;42.82
66668;BME280;57205;51.438;-2.006;2023-05-21T08:23:45;101564.78;;;21.84;43.22
66668;BME280;57205;51.438;-2.006;2023-05-21T08:26:11;101563.84;;;21.58;44.24
66668;BME280;57205;51.438;-2.006;2023-05-21T08:28:37;101569.63;;;21.57;44.26
66668;BME280;57205;51.438;-2.006;2023-05-21T08:31:02;101561.56;;;21.52;44.33
66668;BME280;57205;51.438;-2.006;2023-05-21T08:33:28;101575.44;;;21.11;45.23
66668;BME280;57205;51.438;-2.006;2023-05-21T08:35:53;101562.06;;;21.23;45.08
66668;BME280;57205;51.438;-2.006;2023-05-21T08:38:19;101568.41;;;21.10;45.55
66668;BME280;57205;51.438;-2.006;2023-05-21T08:40:50;101575.50;;;20.97;45.92
66668;BME280;57205;51.438;-2.006;2023-05-21T08:43:16;101571.25;;;21.05;45.99
66668;BME280;57205;51.438;-2.006;2023-05-21T08:45:44;101574.16;;;21.08;46.31
66668;BME280;57205;51.438;-2.006;2023-05-21T08:48:15;101576.88;;;20.86;46.76
66668;BME280;57205;51.438;-2.006;2023-05-21T08:50:41;101578.50;;;20.96;46.93
66668;BME280;57205;51.438;-2.006;2023-05-21T08:53:07;101574.94;;;20.87;47.25
66668;BME280;57205;51.438;-2.006;2023-05-21T08:55:33;101555.91;;;21.09;46.73
66668;BME280;57205;51.438;-2.006;2023-05-21T08:57:59;101566.78;;;21.09;47.30
66668;BME280;57205;51.438;-2.006;2023-05-21T09:00:25;101569.97;;;21.33;46.24
66668;BME280;57205;51.438;-2.006;2023-05-21T09:02:50;101568.59;;;21.44;46.06
66668;BME280;57205;51.438;-2.006;2023-05-21T09:05:18;101569.47;;;21.70;45.39
66668;BME280;57205;51.438;-2.006;2023-05-21T09:10:13;101573.50;;;21.64;45.48
66668;BME280;57205;51.438;-2.006;2023-05-21T09:12:42;101579.22;;;21.54;45.56
66668;BME280;57205;51.438;-2.006;2023-05-21T09:15:08;101575.09;;;21.65;45.09
66668;BME280;57205;51.438;-2.006;2023-05-21T09:17:34;101581.78;;;21.98;44.92
66668;BME280;57205;51.438;-2.006;2023-05-21T09:20:04;101576.41;;;22.24;44.42
66668;BME280;57205;51.438;-2.006;2023-05-21T09:25:06;101566.34;;;22.84;42.88
66668;BME280;57205;51.438;-2.006;2023-05-21T09:27:33;101567.44;;;22.92;42.71
66668;BME280;57205;51.438;-2.006;2023-05-21T09:29:58;101553.00;;;22.74;43.04
66668;BME280;57205;51.438;-2.006;2023-05-21T09:32:24;101551.59;;;22.68;42.53
66668;BME280;57205;51.438;-2.006;2023-05-21T09:34:49;101556.88;;;22.56;42.09
66668;BME280;57205;51.438;-2.006;2023-05-21T09:37:15;101555.72;;;22.31;42.08
66668;BME280;57205;51.438;-2.006;2023-05-21T09:39:41;101556.03;;;22.21;42.41
66668;BME280;57205;51.438;-2.006;2023-05-21T09:42:07;101545.88;;;21.96;43.00
66668;BME280;57205;51.438;-2.006;2023-05-21T09:44:33;101528.44;;;21.67;43.55
66668;BME280;57205;51.438;-2.006;2023-05-21T09:47:00;101550.66;;;21.91;43.59
66668;BME280;57205;51.438;-2.006;2023-05-21T09:49:26;101539.66;;;22.21;43.41
66668;BME280;57205;51.438;-2.006;2023-05-21T09:51:56;101547.84;;;22.47;43.04
66668;BME280;57205;51.438;-2.006;2023-05-21T09:54:22;101538.28;;;22.67;42.64
66668;BME280;57205;51.438;-2.006;2023-05-21T09:56:50;101533.44;;;22.81;42.55
66668;BME280;57205;51.438;-2.006;2023-05-21T09:59:15;101535.00;;;22.99;41.10
66668;BME280;57205;51.438;-2.006;2023-05-21T10:01:41;101544.38;;;22.72;41.94
66668;BME280;57205;51.438;-2.006;2023-05-21T10:04:08;101548.00;;;22.16;42.66
66668;BME280;57205;51.438;-2.006;2023-05-21T10:06:36;101522.56;;;21.73;43.65
66668;BME280;57205;51.438;-2.006;2023-05-21T10:09:10;101533.50;;;21.43;44.90
66668;BME280;57205;51.438;-2.006;2023-05-21T10:11:36;101532.16;;;21.31;45.28
66668;BME280;57205;51.438;-2.006;2023-05-21T10:14:06;101525.38;;;21.20;44.95
66668;BME280;57205;51.438;-2.006;2023-05-21T10:16:34;101533.47;;;21.34;43.85
66668;BME280;57205;51.438;-2.006;2023-05-21T10:19:00;101516.06;;;21.52;43.70
66668;BME280;57205;51.438;-2.006;2023-05-21T10:21:27;101531.06;;;21.72;42.60
66668;BME280;57205;51.438;-2.006;2023-05-21T10:23:54;101524.94;;;22.31;42.47
66668;BME280;57205;51.438;-2.006;2023-05-21T10:26:23;101520.91;;;22.28;42.10
66668;BME280;57205;51.438;-2.006;2023-05-21T10:28:50;101523.47;;;22.76;41.59
66668;BME280;57205;51.438;-2.006;2023-05-21T10:31:16;101526.94;;;23.02;40.91
66668;BME280;57205;51.438;-2.006;2023-05-21T10:33:42;101518.56;;;23.16;39.24
66668;BME280;57205;51.438;-2.006;2023-05-21T10:36:10;101527.00;;;22.77;40.14
66668;BME280;57205;51.438;-2.006;2023-05-21T10:38:37;101509.47;;;22.95;40.42
66668;BME280;57205;51.438;-2.006;2023-05-21T10:41:04;101512.38;;;22.90;40.48
66668;BME280;57205;51.438;-2.006;2023-05-21T11:00:28;101495.66;;;21.80;43.00
66668;BME280;57205;51.438;-2.006;2023-05-21T11:02:57;101509.63;;;21.87;42.72
66668;BME280;57205;51.438;-2.006;2023-05-21T11:05:54;101492.59;;;21.73;43.13
66668;BME280;57205;51.438;-2.006;2023-05-21T11:08:29;101478.16;;;21.64;43.08
66668;BME280;57205;51.438;-2.006;2023-05-21T11:11:00;101474.06;;;21.36;43.11
66668;BME280;57205;51.438;-2.006;2023-05-21T11:13:27;101481.38;;;21.27;43.23
66668;BME280;57205;51.438;-2.006;2023-05-21T11:21:05;101471.50;;;21.48;44.14
66668;BME280;57205;51.438;-2.006;2023-05-21T11:24:04;101468.94;;;21.43;42.14
66668;BME280;57205;51.438;-2.006;2023-05-21T11:29:19;101469.28;;;21.50;42.09
66668;BME280;57205;51.438;-2.006;2023-05-21T11:31:46;101472.16;;;21.45;42.98
66668;BME280;57205;51.438;-2.006;2023-05-21T11:34:18;101459.31;;;21.37;42.64
66668;BME280;57205;51.438;-2.006;2023-05-21T11:36:47;101469.50;;;21.23;43.13
66668;BME280;57205;51.438;-2.006;2023-05-21T11:39:14;101457.06;;;21.30;43.12
66668;BME280;57205;51.438;-2.006;2023-05-21T11:42:00;101465.22;;;21.30;43.46
66668;BME280;57205;51.438;-2.006;2023-05-21T11:44:46;101463.31;;;21.31;42.59
66668;BME280;57205;51.438;-2.006;2023-05-21T11:47:13;101457.97;;;21.26;43.36
66668;BME280;57205;51.438;-2.006;2023-05-21T11:49:40;101446.56;;;21.07;43.36
66668;BME280;57205;51.438;-2.006;2023-05-21T11:52:08;101457.13;;;21.08;43.21
66668;BME280;57205;51.438;-2.006;2023-05-21T11:54:41;101459.53;;;21.10;43.00
66668;BME280;57205;51.438;-2.006;2023-05-21T11:57:09;101449.41;;;21.02;43.46
66668;BME280;57205;51.438;-2.006;2023-05-21T11:59:35;101461.28;;;21.06;43.49
66668;BME280;57205;51.438;-2.006;2023-05-21T12:02:01;101458.38;;;21.02;42.70
66668;BME280;57205;51.438;-2.006;2023-05-21T12:06:56;101437.22;;;20.99;43.46
66668;BME280;57205;51.438;-2.006;2023-05-21T12:09:23;101446.75;;;21.19;43.26
66668;BME280;57205;51.438;-2.006;2023-05-21T12:11:49;101442.56;;;21.13;44.44
66668;BME280;57205;51.438;-2.006;2023-05-21T12:14:17;101442.53;;;21.04;43.77
66668;BME280;57205;51.438;-2.006;2023-05-21T12:16:43;101436.72;;;20.97;45.06
66668;BME280;57205;51.438;-2.006;2023-05-21T12:19:08;101438.56;;;21.10;44.33
66668;BME280;57205;51.438;-2.006;2023-05-21T12:21:40;101441.84;;;20.99;45.32
66668;BME280;57205;51.438;-2.006;2023-05-21T12:24:06;101441.78;;;20.90;45.69
66668;BME280;57205;51.438;-2.006;2023-05-21T12:26:31;101437.22;;;20.99;44.42
66668;BME280;57205;51.438;-2.006;2023-05-21T12:28:57;101438.41;;;20.85;44.12
66668;BME280;57205;51.438;-2.006;2023-05-21T12:31:22;101448.81;;;20.61;44.10
66668;BME280;57205;51.438;-2.006;2023-05-21T12:33:50;101431.78;;;20.47;44.63
66668;BME280;57205;51.438;-2.006;2023-05-21T12:36:25;101438.06;;;20.56;44.93
66668;BME280;57205;51.438;-2.006;2023-05-21T12:38:51;101433.63;;;20.60;44.85
66668;BME280;57205;51.438;-2.006;2023-05-21T12:41:17;101427.09;;;20.38;44.99
66668;BME280;57205;51.438;-2.006;2023-05-21T12:43:42;101419.75;;;20.39;44.81
66668;BME280;57205;51.438;-2.006;2023-05-21T12:46:10;101437.59;;;20.54;45.97
66668;BME280;57205;51.438;-2.006;2023-05-21T12:48:54;101430.06;;;20.51;44.62
66668;BME280;57205;51.438;-2.006;2023-05-21T12:51:20;101421.69;;;20.69;45.04
66668;BME280;57205;51.438;-2.006;2023-05-21T12:53:46;101418.56;;;20.84;44.78
66668;BME280;57205;51.438;-2.006;2023-05-21T12:56:13;101418.25;;;20.86;44.30
66668;BME280;57205;51.438;-2.006;2023-05-21T12:58:39;101407.78;;;20.71;44.70
66668;BME280;57205;51.438;-2.006;2023-05-21T13:01:11;101418.66;;;20.71;44.22
66668;BME280;57205;51.438;-2.006;2023-05-21T13:03:37;101419.00;;;20.78;45.46
66668;BME280;57205;51.438;-2.006;2023-05-21T13:06:06;101409.38;;;20.72;45.73
66668;BME280;57205;51.438;-2.006;2023-05-21T13:08:32;101419.88;;;20.65;44.75
66668;BME280;57205;51.438;-2.006;2023-05-21T13:11:04;101406.09;;;20.53;44.57